createdAt,value
2018-11-06T00:01:41.759Z,34.90
2018-11-06T00:04:10.225Z,36.60
2018-11-06T00:06:38.702Z,40.50
2018-11-06T00:09:08.203Z,40.83
2018-11-06T00:11:36.651Z,41.30
2018-11-06T00:14:05.629Z,47.20
2018-11-06T00:16:34.097Z,44.57
2018-11-06T00:19:02.593Z,39.07
2018-11-06T00:21:31.080Z,43.63
2018-11-06T00:23:59.552Z,33.33
2018-11-06T00:26:28.062Z,39.90
2018-11-06T00:28:56.527Z,38.73
2018-11-06T00:31:24.991Z,40.77
2018-11-06T00:33:53.452Z,31.93
2018-11-06T00:36:21.935Z,35.57
2018-11-06T00:38:50.374Z,37.43
2018-11-06T00:41:18.850Z,31.83
2018-11-06T00:43:47.462Z,32.03
2018-11-06T00:46:15.942Z,34.63
2018-11-06T00:48:44.404Z,36.00
2018-11-06T00:51:12.894Z,36.83
2018-11-06T00:53:41.336Z,40.20
2018-11-06T00:56:09.936Z,37.40
2018-11-06T00:58:38.416Z,36.97
2018-11-06T01:01:06.944Z,37.70
2018-11-06T01:03:40.930Z,37.60
2018-11-06T01:06:09.375Z,32.67
2018-11-06T01:08:38.901Z,35.17
2018-11-06T01:11:07.384Z,31.97
2018-11-06T01:13:35.845Z,36.47
2018-11-06T01:16:04.331Z,38.33
2018-11-06T01:18:32.801Z,34.00
2018-11-06T01:21:01.318Z,36.93
2018-11-06T01:23:29.771Z,34.40
2018-11-06T01:25:58.284Z,40.33
2018-11-06T01:28:26.742Z,34.80
2018-11-06T01:30:55.218Z,37.33
2018-11-06T01:33:23.670Z,34.77
2018-11-06T01:35:52.132Z,37.20
2018-11-06T01:38:20.923Z,36.57
2018-11-06T01:40:49.456Z,36.87
2018-11-06T01:43:17.949Z,31.40
2018-11-06T01:45:46.413Z,35.30
2018-11-06T01:48:14.903Z,34.47
2018-11-06T01:50:43.408Z,32.20
2018-11-06T01:53:11.923Z,35.63
2018-11-06T01:55:52.785Z,38.53
2018-11-06T01:58:21.245Z,31.63
2018-11-06T02:00:49.715Z,33.93
2018-11-06T02:03:18.171Z,34.47
2018-11-06T02:05:46.627Z,31.60
2018-11-06T02:08:16.152Z,30.00
2018-11-06T02:10:44.619Z,32.60
2018-11-06T02:13:13.068Z,36.63
2018-11-06T02:15:41.555Z,30.13
2018-11-06T02:18:10.055Z,31.97
2018-11-06T02:20:38.516Z,29.97
2018-11-06T02:23:06.961Z,27.03
2018-11-06T02:25:35.405Z,29.87
2018-11-06T02:28:03.887Z,30.90
2018-11-06T02:30:32.362Z,27.30
2018-11-06T02:33:00.811Z,27.73
2018-11-06T02:35:29.305Z,31.53
2018-11-06T02:37:57.764Z,30.70
2018-11-06T02:40:26.280Z,33.10
2018-11-06T02:42:54.731Z,39.07
2018-11-06T02:45:23.176Z,36.83
2018-11-06T02:47:51.687Z,32.87
2018-11-06T02:50:20.281Z,36.00
2018-11-06T02:52:48.741Z,31.67
2018-11-06T02:55:17.170Z,28.40
2018-11-06T02:57:45.633Z,29.97
2018-11-06T03:00:15.200Z,29.30
2018-11-06T03:02:44.382Z,28.57
2018-11-06T03:05:12.833Z,25.47
2018-11-06T03:07:41.874Z,31.93
2018-11-06T03:10:11.586Z,30.17
2018-11-06T03:12:41.078Z,30.03
2018-11-06T03:15:10.487Z,26.70
2018-11-06T03:17:38.980Z,28.50
2018-11-06T03:20:08.152Z,29.17
2018-11-06T03:22:36.619Z,27.27
2018-11-06T03:25:05.252Z,26.30
2018-11-06T03:27:33.716Z,26.80
2018-11-06T03:30:02.214Z,31.80
2018-11-06T03:32:30.731Z,27.30
2018-11-06T03:34:59.186Z,22.47
2018-11-06T03:37:27.659Z,23.20
2018-11-06T03:39:56.119Z,24.00
2018-11-06T03:42:24.597Z,24.63
2018-11-06T03:44:53.011Z,25.83
2018-11-06T03:47:21.503Z,26.90
2018-11-06T03:49:49.971Z,29.33
2018-11-06T03:52:18.427Z,28.70
2018-11-06T03:54:46.891Z,28.60
2018-11-06T03:57:15.342Z,34.90
2018-11-06T03:59:43.773Z,33.50
2018-11-06T04:02:12.249Z,33.07
2018-11-06T04:04:40.700Z,32.20
2018-11-06T04:07:09.215Z,32.73
2018-11-06T04:09:37.679Z,34.70
2018-11-06T04:12:06.167Z,28.70
2018-11-06T04:14:34.630Z,28.37
2018-11-06T04:17:03.036Z,28.17
2018-11-06T04:19:31.400Z,30.10
2018-11-06T04:21:59.756Z,29.10
2018-11-06T04:24:28.181Z,34.87
2018-11-06T04:26:56.564Z,26.40
2018-11-06T04:29:24.978Z,29.80
2018-11-06T04:31:53.351Z,28.43
2018-11-06T04:34:21.771Z,25.83
2018-11-06T04:36:50.160Z,23.83
2018-11-06T04:39:18.583Z,21.10
2018-11-06T04:41:46.951Z,22.87
2018-11-06T04:44:15.351Z,19.13
2018-11-06T04:46:43.714Z,21.10
2018-11-06T04:49:12.268Z,15.00
2018-11-06T04:51:40.634Z,21.43
2018-11-06T04:54:09.007Z,20.13
2018-11-06T04:56:37.403Z,21.10
2018-11-06T04:59:05.815Z,17.53
2018-11-06T05:01:34.203Z,20.47
2018-11-06T05:04:02.602Z,21.53
2018-11-06T05:06:30.991Z,15.60
2018-11-06T05:08:59.385Z,19.37
2018-11-06T05:11:27.819Z,19.40
2018-11-06T05:13:56.268Z,23.83
2018-11-06T05:16:24.639Z,18.10
2018-11-06T05:18:53.076Z,17.23
2018-11-06T05:21:21.479Z,20.60
2018-11-06T05:23:49.906Z,15.23
2018-11-06T05:26:18.281Z,16.27
2018-11-06T05:28:46.734Z,21.97
2018-11-06T05:31:15.140Z,19.13
2018-11-06T05:33:43.955Z,15.47
2018-11-06T05:36:12.376Z,16.60
2018-11-06T05:38:40.792Z,15.77
2018-11-06T05:41:09.310Z,19.57
2018-11-06T05:43:40.261Z,16.20
2018-11-06T05:46:08.647Z,18.40
2018-11-06T05:48:37.468Z,17.47
2018-11-06T05:51:05.994Z,17.77
2018-11-06T05:53:34.419Z,20.60
2018-11-06T05:56:02.796Z,21.03
2018-11-06T05:58:31.199Z,19.10
2018-11-06T06:00:59.598Z,18.63
2018-11-06T06:03:28.139Z,21.90
2018-11-06T06:05:56.584Z,18.70
2018-11-06T06:08:24.998Z,20.63
2018-11-06T06:10:53.486Z,20.20
2018-11-06T06:13:21.924Z,20.87
2018-11-06T06:15:50.314Z,17.43
2018-11-06T06:18:18.764Z,17.90
2018-11-06T06:20:47.190Z,20.00
2018-11-06T06:23:17.719Z,17.43
2018-11-06T06:25:46.150Z,16.83
2018-11-06T06:28:14.665Z,21.13
2018-11-06T06:30:43.169Z,22.10
2018-11-06T06:33:21.376Z,19.03
2018-11-06T06:35:49.824Z,20.00
2018-11-06T06:38:18.279Z,30.70
2018-11-06T06:40:46.728Z,21.03
2018-11-06T06:43:15.189Z,24.13
2018-11-06T06:45:43.636Z,22.50
2018-11-06T06:48:12.069Z,61.00
2018-11-06T06:50:40.490Z,32.53
2018-11-06T06:53:08.949Z,25.83
2018-11-06T06:55:37.399Z,23.20
2018-11-06T06:58:05.816Z,24.73
2018-11-06T07:00:34.221Z,22.00
2018-11-06T07:03:02.711Z,25.93
2018-11-06T07:05:31.183Z,24.70
2018-11-06T07:07:59.688Z,19.90
2018-11-06T07:10:28.126Z,21.80
2018-11-06T07:12:56.631Z,24.47
2018-11-06T07:15:24.971Z,20.20
2018-11-06T07:17:53.356Z,19.97
2018-11-06T07:20:23.192Z,20.97
2018-11-06T07:22:51.566Z,20.40
2018-11-06T07:25:20.019Z,28.97
2018-11-06T07:27:48.815Z,24.83
2018-11-06T07:30:19.466Z,15.73
2018-11-06T07:32:48.005Z,17.83
2018-11-06T07:35:17.118Z,18.20
2018-11-06T07:37:45.812Z,17.20
2018-11-06T07:40:15.345Z,21.50
2018-11-06T07:42:43.777Z,16.57
2018-11-06T07:45:13.641Z,16.00
2018-11-06T07:47:43.408Z,29.90
2018-11-06T07:50:12.678Z,24.47
2018-11-06T07:52:41.199Z,19.63
2018-11-06T07:55:12.063Z,15.83
2018-11-06T07:57:40.548Z,23.57
2018-11-06T08:00:21.715Z,20.43
2018-11-06T08:02:50.534Z,21.17
2018-11-06T08:05:19.008Z,17.90
2018-11-06T08:07:48.190Z,19.10
2018-11-06T08:10:16.571Z,23.57
2018-11-06T08:12:46.583Z,17.57
2018-11-06T08:15:15.062Z,28.70
2018-11-06T08:17:44.310Z,32.80
2018-11-06T08:20:12.755Z,21.33
2018-11-06T08:22:41.101Z,20.10
2018-11-06T08:25:11.686Z,16.73
2018-11-06T08:27:40.876Z,21.50
2018-11-06T08:30:09.899Z,22.90
2018-11-06T08:32:39.897Z,22.20
2018-11-06T08:35:10.241Z,20.20
2018-11-06T08:37:38.797Z,21.87
2018-11-06T08:40:08.204Z,19.73
2018-11-06T08:42:36.798Z,17.70
2018-11-06T08:45:06.511Z,17.43
2018-11-06T08:47:34.915Z,24.00
2018-11-06T08:50:03.435Z,16.73
2018-11-06T08:52:32.043Z,17.10
2018-11-06T08:55:00.538Z,18.50
2018-11-06T08:57:28.909Z,18.90
2018-11-06T08:59:57.387Z,19.63
2018-11-06T09:02:25.831Z,17.47
2018-11-06T09:04:54.175Z,18.30
2018-11-06T09:07:22.558Z,17.83
2018-11-06T09:09:50.931Z,21.70
2018-11-06T09:12:19.352Z,20.70
2018-11-06T09:14:47.885Z,21.70
2018-11-06T09:17:16.255Z,22.33
2018-11-06T09:19:44.648Z,19.33
2018-11-06T09:22:13.223Z,20.67
2018-11-06T09:24:41.581Z,22.77
2018-11-06T09:27:09.987Z,21.70
2018-11-06T09:29:38.335Z,23.60
2018-11-06T09:32:07.148Z,28.03
2018-11-06T09:34:35.526Z,18.87
2018-11-06T09:37:03.926Z,22.47
2018-11-06T09:39:32.279Z,27.33
2018-11-06T09:42:00.649Z,23.20
2018-11-06T09:44:29.012Z,19.40
2018-11-06T09:46:57.382Z,24.10
2018-11-06T09:49:25.825Z,23.67
2018-11-06T09:51:54.442Z,19.57
2018-11-06T09:54:22.797Z,23.20
2018-11-06T09:56:51.172Z,23.67
2018-11-06T09:59:19.522Z,24.50
2018-11-06T10:01:47.892Z,23.43
2018-11-06T10:04:16.378Z,22.63
2018-11-06T10:06:45.017Z,23.87
2018-11-06T10:09:13.920Z,24.23
2018-11-06T10:11:42.580Z,27.90
2018-11-06T10:14:19.197Z,25.43
2018-11-06T10:19:30.440Z,24.50
2018-11-06T10:22:01.091Z,25.20
2018-11-06T10:24:41.224Z,26.73
2018-11-06T10:27:22.872Z,25.30
2018-11-06T10:30:11.158Z,23.67
2018-11-06T10:32:47.871Z,29.43
2018-11-06T10:35:25.334Z,30.53
2018-11-06T10:38:01.616Z,27.30
2018-11-06T10:40:43.644Z,23.53
2018-11-06T10:43:21.057Z,25.30
2018-11-06T10:45:59.828Z,28.47
2018-11-06T10:48:37.709Z,32.83
2018-11-06T10:51:15.135Z,21.10
2018-11-06T10:53:45.474Z,24.50
2018-11-06T10:56:15.323Z,25.73
2018-11-06T10:58:49.249Z,24.80
2018-11-06T11:01:27.442Z,26.80
2018-11-06T11:04:08.305Z,24.17
2018-11-06T11:06:43.016Z,23.10
2018-11-06T11:09:22.124Z,24.33
2018-11-06T11:11:58.969Z,21.70
2018-11-06T11:14:36.947Z,25.17
2018-11-06T11:17:11.653Z,21.27
2018-11-06T11:19:41.028Z,24.30
2018-11-06T11:22:10.419Z,28.30
2018-11-06T11:24:41.010Z,26.70
2018-11-06T11:27:11.909Z,22.00
2018-11-06T11:29:41.228Z,23.37
2018-11-06T11:32:10.011Z,27.73
2018-11-06T11:34:40.157Z,26.13
2018-11-06T11:37:14.365Z,28.30
2018-11-06T11:39:48.688Z,25.83
2018-11-06T11:42:21.703Z,25.70
2018-11-06T11:44:59.058Z,25.00
2018-11-06T11:47:30.917Z,26.17
2018-11-06T11:50:04.198Z,26.80
2018-11-06T11:52:35.118Z,24.33
2018-11-06T11:55:05.418Z,25.93
2018-11-06T11:57:38.438Z,26.30
2018-11-06T12:00:10.653Z,27.70
2018-11-06T12:02:44.182Z,23.90
2018-11-06T12:05:16.471Z,30.50
2018-11-06T12:07:50.789Z,24.03
2018-11-06T12:10:22.462Z,26.03
2018-11-06T12:12:54.698Z,25.77
2018-11-06T12:15:24.801Z,29.53
2018-11-06T12:17:55.220Z,25.87
2018-11-06T12:20:26.318Z,22.40
2018-11-06T12:22:56.937Z,22.60
2018-11-06T12:25:27.799Z,23.90
2018-11-06T12:28:01.368Z,25.80
2018-11-06T12:30:32.850Z,23.50
2018-11-06T12:33:05.818Z,22.93
2018-11-06T12:35:35.760Z,24.50
2018-11-06T12:38:06.316Z,25.70
2018-11-06T12:40:36.284Z,29.57
2018-11-06T12:43:09.973Z,25.03
2018-11-06T12:45:46.354Z,22.87
2018-11-06T12:48:15.043Z,22.60
2018-11-06T12:53:42.071Z,22.53
2018-11-06T12:56:18.763Z,28.70
2018-11-06T12:58:54.771Z,24.60
2018-11-06T13:01:35.117Z,23.80
2018-11-06T13:04:11.563Z,21.33
2018-11-06T13:06:43.893Z,23.20
2018-11-06T13:09:16.156Z,27.60
2018-11-06T13:11:48.437Z,25.63
2018-11-06T13:14:21.810Z,25.90
2018-11-06T13:16:54.533Z,25.27
2018-11-06T13:19:24.362Z,27.90
2018-11-06T13:21:55.907Z,27.07
2018-11-06T13:24:27.640Z,24.17
2018-11-06T13:26:57.932Z,23.53
2018-11-06T13:29:32.010Z,34.67
2018-11-06T13:32:06.654Z,24.40
2018-11-06T13:34:39.458Z,26.77
2018-11-06T13:37:08.022Z,25.23
2018-11-06T13:39:36.383Z,22.20
2018-11-06T13:42:05.272Z,21.67
2018-11-06T13:44:34.006Z,23.77
2018-11-06T13:47:02.065Z,24.57
2018-11-06T13:49:30.471Z,23.50
2018-11-06T13:51:58.891Z,26.50
2018-11-06T13:54:27.338Z,23.73
2018-11-06T13:56:55.926Z,31.60
2018-11-06T13:59:24.362Z,24.80
2018-11-06T14:01:54.791Z,24.93
2018-11-06T14:04:24.056Z,23.77
2018-11-06T14:06:54.254Z,22.87
2018-11-06T14:09:23.336Z,22.70
2018-11-06T14:11:53.828Z,26.20
2018-11-06T14:14:22.592Z,22.83
2018-11-06T14:16:51.320Z,24.23
2018-11-06T14:19:19.905Z,24.23
2018-11-06T14:21:48.926Z,23.23
2018-11-06T14:24:17.643Z,25.77
2018-11-06T14:29:41.377Z,26.30
2018-11-06T14:32:09.981Z,21.13
2018-11-06T14:34:38.647Z,24.77
2018-11-06T14:37:07.272Z,18.80
2018-11-06T14:39:35.844Z,24.03
2018-11-06T14:42:04.940Z,22.43
2018-11-06T14:44:33.973Z,20.00
2018-11-06T14:47:02.849Z,23.37
2018-11-06T14:49:31.613Z,22.27
2018-11-06T14:52:00.765Z,21.53
2018-11-06T14:54:29.632Z,21.07
2018-11-06T14:56:58.620Z,22.77
2018-11-06T14:59:27.502Z,19.70
2018-11-06T15:01:56.649Z,23.17
2018-11-06T15:04:27.042Z,20.80
2018-11-06T15:06:56.625Z,20.90
2018-11-06T15:09:25.279Z,22.60
2018-11-06T15:11:53.691Z,22.83
2018-11-06T15:14:22.140Z,23.23
2018-11-06T15:16:50.531Z,23.70
2018-11-06T15:19:18.971Z,23.97
2018-11-06T15:21:47.431Z,24.20
2018-11-06T15:24:15.947Z,51.00
2018-11-06T15:26:44.356Z,39.57
2018-11-06T15:29:12.836Z,28.33
2018-11-06T15:31:41.292Z,24.10
2018-11-06T15:34:09.708Z,22.47
2018-11-06T15:36:38.122Z,25.30
2018-11-06T15:39:08.500Z,18.10
2018-11-06T15:41:37.691Z,25.20
2018-11-06T15:44:06.367Z,20.57
2018-11-06T15:46:35.030Z,25.23
2018-11-06T15:49:03.461Z,25.90
2018-11-06T15:51:31.843Z,21.37
2018-11-06T15:54:00.338Z,27.17
2018-11-06T15:56:36.600Z,21.53
2018-11-06T15:59:05.282Z,23.40
2018-11-06T16:01:33.826Z,22.10
2018-11-06T16:04:02.443Z,24.43
2018-11-06T16:06:31.021Z,22.87
2018-11-06T16:08:59.504Z,22.20
2018-11-06T16:11:27.881Z,25.23
2018-11-06T16:13:56.426Z,25.57
2018-11-06T16:16:24.988Z,25.87
2018-11-06T16:18:53.465Z,74.87
2018-11-06T16:21:22.031Z,115.17
2018-11-06T16:23:50.449Z,48.97
2018-11-06T16:26:18.977Z,31.97
2018-11-06T16:28:47.484Z,30.53
2018-11-06T16:31:15.968Z,29.13
2018-11-06T16:33:44.641Z,25.37
2018-11-06T16:36:13.203Z,26.90
2018-11-06T16:38:41.764Z,22.37
2018-11-06T16:41:10.183Z,24.97
2018-11-06T16:43:38.820Z,22.70
2018-11-06T16:46:07.196Z,26.07
2018-11-06T16:48:35.683Z,27.07
2018-11-06T16:51:04.516Z,22.93
2018-11-06T16:53:33.046Z,24.60
2018-11-06T16:56:01.480Z,23.47
2018-11-06T16:58:29.906Z,31.10
2018-11-06T17:00:58.470Z,25.80
2018-11-06T17:03:26.827Z,29.40
2018-11-06T17:05:55.277Z,32.60
2018-11-06T17:08:23.736Z,30.50
2018-11-06T17:10:52.211Z,49.90
2018-11-06T17:13:20.637Z,40.47
2018-11-06T17:15:50.598Z,33.53
2018-11-06T17:18:19.179Z,30.70
2018-11-06T17:20:47.864Z,30.40
2018-11-06T17:23:16.516Z,33.23
2018-11-06T17:25:45.215Z,30.80
2018-11-06T17:28:13.906Z,28.00
2018-11-06T17:30:42.955Z,32.13
2018-11-06T17:33:11.514Z,32.07
2018-11-06T17:35:40.227Z,33.13
2018-11-06T17:38:08.753Z,35.57
2018-11-06T17:40:37.337Z,32.83
2018-11-06T17:43:06.125Z,32.27
2018-11-06T17:45:34.565Z,36.57
2018-11-06T17:48:03.741Z,33.37
2018-11-06T17:50:32.279Z,35.73
2018-11-06T17:53:01.075Z,36.53
2018-11-06T17:55:29.895Z,32.67
2018-11-06T17:57:58.707Z,35.87
2018-11-06T18:00:27.627Z,36.90
2018-11-06T18:02:56.895Z,34.10
2018-11-06T18:05:27.085Z,34.60
2018-11-06T18:07:55.658Z,40.63
2018-11-06T18:10:26.052Z,42.47
2018-11-06T18:12:54.861Z,41.27
2018-11-06T18:15:25.043Z,43.53
2018-11-06T18:17:54.136Z,38.70
2018-11-06T18:20:23.161Z,36.93
2018-11-06T18:22:52.876Z,41.67
2018-11-06T18:30:53.119Z,39.53
2018-11-06T18:33:28.232Z,43.70
2018-11-06T18:36:07.672Z,48.00
2018-11-06T18:38:53.756Z,50.23
2018-11-06T18:41:40.126Z,40.10
2018-11-06T19:32:50.360Z,40.80
2018-11-06T19:38:39.820Z,39.67
2018-11-06T19:41:08.639Z,42.37
2018-11-06T19:43:37.737Z,47.97
2018-11-06T19:46:08.617Z,46.77
2018-11-06T19:48:37.514Z,40.80
2018-11-06T19:51:06.297Z,48.57
2018-11-06T19:53:35.175Z,51.10
2018-11-06T19:56:04.016Z,54.60
2018-11-06T19:58:32.763Z,50.67
2018-11-06T20:01:02.469Z,59.43
2018-11-06T20:03:31.348Z,63.17
2018-11-06T20:06:00.196Z,56.80
2018-11-06T20:08:29.052Z,60.07
2018-11-06T20:10:58.784Z,65.43
2018-11-06T20:13:27.566Z,75.47
2018-11-06T20:29:22.805Z,63.20
2018-11-06T20:31:52.773Z,64.27
2018-11-06T20:34:21.544Z,73.23
2018-11-06T20:36:50.229Z,68.73
2018-11-06T20:39:19.084Z,61.23
2018-11-06T20:41:47.832Z,66.53
2018-11-06T20:44:16.496Z,64.97
2018-11-06T20:49:25.108Z,66.97
2018-11-06T20:51:54.210Z,86.87
2018-11-06T20:54:22.872Z,81.43
2018-11-06T20:56:51.574Z,79.90
2018-11-06T20:59:20.327Z,70.70
2018-11-06T21:01:49.048Z,66.30
2018-11-06T21:04:17.655Z,66.23
2018-11-06T21:06:46.458Z,64.17
2018-11-06T21:09:15.112Z,68.80
2018-11-06T21:11:44.415Z,70.77
2018-11-06T21:14:13.035Z,69.33
2018-11-06T21:16:56.304Z,65.83
2018-11-06T21:19:25.092Z,63.63
2018-11-06T21:21:53.826Z,58.40
2018-11-06T21:24:22.508Z,54.30
2018-11-06T21:26:51.305Z,81.97
2018-11-06T21:29:20.384Z,70.80
2018-11-06T21:31:49.453Z,65.60
2018-11-06T21:34:18.487Z,62.87
2018-11-06T21:36:47.390Z,68.83
2018-11-06T21:42:10.789Z,71.80
2018-11-06T21:44:43.668Z,53.93
2018-11-06T21:47:13.628Z,58.53
2018-11-06T21:49:45.997Z,63.93
2018-11-06T21:52:15.939Z,62.23
2018-11-06T21:54:45.532Z,57.07
2018-11-06T21:57:14.691Z,64.80
2018-11-06T21:59:44.053Z,60.90
2018-11-06T22:02:13.211Z,66.67
2018-11-06T22:04:48.036Z,59.13
2018-11-06T22:07:17.653Z,64.73
2018-11-06T22:09:47.182Z,60.97
2018-11-06T22:12:17.191Z,56.93
2018-11-06T22:14:46.326Z,56.90
2018-11-06T22:17:15.493Z,59.67
2018-11-06T22:19:44.696Z,65.67
2018-11-06T22:22:14.478Z,62.63
2018-11-06T22:24:43.563Z,56.67
2018-11-06T22:27:14.257Z,80.43
2018-11-06T22:29:43.594Z,65.60
2018-11-06T22:32:13.170Z,65.70
2018-11-06T22:34:42.306Z,60.80
2018-11-06T22:43:32.971Z,59.13
2018-11-06T22:46:04.770Z,55.73
2018-11-06T22:48:34.363Z,62.23
2018-11-06T22:51:03.865Z,62.80
2018-11-06T22:53:33.823Z,65.40
2018-11-06T22:56:03.703Z,64.73
2018-11-06T23:01:19.262Z,65.60
2018-11-06T23:03:54.699Z,65.20
2018-11-06T23:06:24.240Z,74.20
2018-11-06T23:08:53.844Z,58.40
2018-11-06T23:11:23.070Z,71.83
2018-11-06T23:13:52.276Z,71.03
2018-11-06T23:16:21.213Z,65.97
2018-11-06T23:18:50.250Z,61.67
2018-11-06T23:21:19.422Z,55.50
2018-11-06T23:23:48.276Z,66.40
2018-11-06T23:26:17.161Z,60.20
2018-11-06T23:28:45.947Z,59.33
2018-11-06T23:31:14.869Z,53.20
2018-11-06T23:33:44.076Z,62.47
2018-11-06T23:36:12.910Z,52.70
2018-11-06T23:38:41.628Z,51.80
2018-11-06T23:41:10.567Z,53.87
2018-11-06T23:43:39.827Z,51.77
2018-11-06T23:46:09.067Z,52.97
2018-11-06T23:48:38.354Z,47.97
2018-11-06T23:51:07.552Z,45.03
2018-11-06T23:53:36.349Z,44.70
2018-11-06T23:56:05.036Z,48.33
2018-11-06T23:58:33.583Z,45.87
